Time;durP1;ratioP1;P1;durP2;ratioP2;P2;SDS_P1;SDS_P2;PMS_P1;PMS_P2;Temp;Humidity;BMP_temperature;BMP_pressure;BME280_temperature;BME280_humidity;BME280_pressure;Samples;Min_cycle;Max_cycle;Signal;HPM_P1;HPM_P2
2022/07/07 00:00:02;;;;;;;4.82;2.28;;;22.10;98.60;;;;;;4840522;29;20168;-80
2022/07/07 00:02:28;;;;;;;5.55;2.15;;;22.00;98.70;;;;;;4840563;29;20552;-80
2022/07/07 00:04:53;;;;;;;6.38;1.60;;;21.90;99.00;;;;;;4840262;29;20050;-80
2022/07/07 00:07:20;;;;;;;4.03;1.55;;;22.00;99.10;;;;;;4840653;29;20481;-80
2022/07/07 00:09:45;;;;;;;5.80;1.83;;;21.90;99.40;;;;;;4840388;29;20018;-80
2022/07/07 00:12:11;;;;;;;5.93;2.08;;;21.90;99.30;;;;;;4840027;29;20513;-80
2022/07/07 00:14:37;;;;;;;8.07;1.80;;;21.90;99.50;;;;;;4840317;29;20530;-80
2022/07/07 00:17:03;;;;;;;6.97;2.10;;;21.90;99.70;;;;;;4840112;29;20387;-81
2022/07/07 00:19:29;;;;;;;8.82;2.30;;;21.80;99.80;;;;;;4840306;29;20243;-81
2022/07/07 00:21:54;;;;;;;5.70;1.92;;;21.80;99.90;;;;;;4839982;29;20565;-80
2022/07/07 00:24:20;;;;;;;3.60;1.90;;;21.80;99.90;;;;;;4840241;29;20026;-80
2022/07/07 00:26:46;;;;;;;6.00;1.90;;;21.80;99.90;;;;;;4840065;29;20530;-80
2022/07/07 00:29:12;;;;;;;4.40;1.90;;;21.70;99.90;;;;;;4839965;29;20041;-80
2022/07/07 00:31:38;;;;;;;4.60;1.92;;;21.80;99.90;;;;;;4839949;29;20037;-80
2022/07/07 00:34:03;;;;;;;5.32;2.00;;;21.60;99.90;;;;;;4840001;29;20436;-80
2022/07/07 00:36:29;;;;;;;5.13;2.28;;;21.60;99.90;;;;;;4839972;29;20495;-80
2022/07/07 00:38:55;;;;;;;6.80;2.10;;;21.50;99.90;;;;;;4829072;29;20034;-80
2022/07/07 00:41:21;;;;;;;7.05;2.00;;;21.50;99.90;;;;;;4838120;29;20171;-80
2022/07/07 00:43:50;;;;;;;10.30;1.60;;;21.50;99.90;;;;;;4840133;29;20105;-80
2022/07/07 00:46:15;;;;;;;5.72;1.52;;;21.50;99.90;;;;;;4839875;29;20034;-80
2022/07/07 00:48:42;;;;;;;4.20;1.90;;;21.40;99.90;;;;;;4839655;29;20025;-80
2022/07/07 00:51:11;;;;;;;5.10;1.85;;;21.40;99.90;;;;;;4839565;29;20065;-80
2022/07/07 00:53:38;;;;;;;7.25;1.80;;;21.30;99.90;;;;;;4839715;29;20029;-80
2022/07/07 00:56:04;;;;;;;11.48;1.80;;;21.30;99.90;;;;;;4839632;29;20030;-80
2022/07/07 00:58:30;;;;;;;6.53;2.05;;;21.20;99.90;;;;;;4839541;29;20097;-80
2022/07/07 01:00:56;;;;;;;6.75;1.88;;;21.20;99.90;;;;;;4839581;29;20113;-80
2022/07/07 01:03:22;;;;;;;3.08;1.63;;;21.20;99.90;;;;;;4839101;29;20065;-80
2022/07/07 01:05:48;;;;;;;6.85;2.05;;;21.10;99.90;;;;;;4839600;29;20442;-80
2022/07/07 01:08:15;;;;;;;4.78;1.38;;;21.00;99.90;;;;;;4839293;29;20030;-80
2022/07/07 01:10:45;;;;;;;3.35;1.48;;;20.90;99.90;;;;;;4839449;29;20122;-80
2022/07/07 01:13:11;;;;;;;3.42;1.65;;;20.80;99.90;;;;;;4838023;29;20463;-80
2022/07/07 01:15:37;;;;;;;5.22;1.63;;;20.80;99.90;;;;;;4839733;29;20170;-80
2022/07/07 01:18:04;;;;;;;6.22;1.58;;;20.80;99.90;;;;;;4839239;29;20106;-80
2022/07/07 01:20:30;;;;;;;5.75;1.30;;;20.70;99.90;;;;;;4839267;29;20034;-80
2022/07/07 01:22:56;;;;;;;5.97;1.67;;;20.70;99.90;;;;;;4839368;29;20022;-80
2022/07/07 01:25:23;;;;;;;4.90;1.42;;;20.70;99.90;;;;;;4839066;29;20507;-80
2022/07/07 01:27:49;;;;;;;2.47;1.20;;;20.70;99.90;;;;;;4839109;29;20028;-80
2022/07/07 01:30:16;;;;;;;4.95;1.20;;;20.70;99.90;;;;;;4839113;29;20030;-80
2022/07/07 01:32:42;;;;;;;8.05;1.83;;;20.60;99.90;;;;;;4839095;29;20037;-80
2022/07/07 01:35:10;;;;;;;2.28;1.10;;;20.70;99.90;;;;;;4839357;29;20201;-80
2022/07/07 01:37:36;;;;;;;6.68;1.42;;;20.60;99.90;;;;;;4838054;29;20281;-80
2022/07/07 01:40:03;;;;;;;2.38;1.20;;;20.60;99.90;;;;;;4827531;29;20036;-80
2022/07/07 01:42:29;;;;;;;2.03;1.30;;;20.60;99.90;;;;;;4838908;29;20120;-80
2022/07/07 01:44:55;;;;;;;2.17;1.00;;;20.50;99.90;;;;;;4838924;29;20559;-80
2022/07/07 01:47:24;;;;;;;4.05;1.08;;;20.40;99.90;;;;;;4838885;29;20083;-80
2022/07/07 01:49:50;;;;;;;5.38;1.27;;;20.40;99.90;;;;;;4839020;29;20109;-80
2022/07/07 01:52:16;;;;;;;3.47;1.00;;;20.20;99.90;;;;;;4837852;29;20041;-80
2022/07/07 01:54:42;;;;;;;4.40;1.00;;;20.20;99.90;;;;;;4839005;29;20022;-80
2022/07/07 01:57:09;;;;;;;4.68;1.10;;;20.20;99.90;;;;;;4838905;29;20030;-80
2022/07/07 01:59:38;;;;;;;2.38;0.90;;;20.10;99.90;;;;;;4838943;29;20082;-80
2022/07/07 02:02:03;;;;;;;4.80;0.88;;;20.10;99.90;;;;;;4838594;29;20563;-80
2022/07/07 02:04:29;;;;;;;2.85;1.10;;;20.00;99.90;;;;;;4838619;29;20187;-80
2022/07/07 02:06:55;;;;;;;1.27;0.98;;;20.00;99.90;;;;;;4838810;29;20037;-80
2022/07/07 02:09:21;;;;;;;3.13;0.90;;;20.00;99.90;;;;;;4838929;29;20105;-80
2022/07/07 02:11:46;;;;;;;3.75;0.93;;;20.00;99.90;;;;;;4838822;29;20402;-80
2022/07/07 02:14:12;;;;;;;3.10;1.02;;;20.00;99.90;;;;;;4832234;29;20502;-80
2022/07/07 02:16:38;;;;;;;3.42;0.90;;;19.90;99.90;;;;;;4837146;29;20038;-80
2022/07/07 02:19:06;;;;;;;4.63;0.88;;;19.80;99.90;;;;;;4842179;29;20026;-80
2022/07/07 02:21:32;;;;;;;2.95;0.90;;;19.80;99.90;;;;;;4842087;29;20124;-80
2022/07/07 02:23:58;;;;;;;2.88;1.00;;;19.80;99.90;;;;;;4842283;29;20022;-80
2022/07/07 02:26:25;;;;;;;3.50;0.93;;;19.80;99.90;;;;;;4842275;29;20078;-80
2022/07/07 02:28:51;;;;;;;2.05;0.88;;;19.90;99.90;;;;;;4842468;29;20652;-80
2022/07/07 02:31:17;;;;;;;5.68;0.82;;;19.80;99.90;;;;;;4842326;29;20278;-80
2022/07/07 02:33:43;;;;;;;3.75;1.10;;;19.80;99.90;;;;;;4841915;29;20033;-80
2022/07/07 02:36:10;;;;;;;4.55;1.00;;;19.70;99.90;;;;;;4842074;29;20066;-80
2022/07/07 02:38:37;;;;;;;2.65;0.90;;;19.80;99.90;;;;;;4833361;29;20026;-80
2022/07/07 02:41:04;;;;;;;2.55;1.00;;;19.70;99.90;;;;;;4837987;29;20253;-80
2022/07/07 02:43:30;;;;;;;2.72;0.90;;;19.60;99.90;;;;;;4841974;29;20424;-80
2022/07/07 02:45:55;;;;;;;2.08;0.98;;;19.50;99.90;;;;;;4842061;29;20068;-80
2022/07/07 02:48:24;;;;;;;4.25;1.05;;;19.50;99.90;;;;;;4841707;29;20026;-80
2022/07/07 02:50:51;;;;;;;2.58;0.98;;;19.50;99.90;;;;;;4841941;29;20491;-80
2022/07/07 02:53:18;;;;;;;1.60;0.90;;;19.50;99.90;;;;;;4841634;29;20032;-80
2022/07/07 02:55:44;;;;;;;3.45;1.10;;;19.40;99.90;;;;;;4841644;29;20384;-80
2022/07/07 02:58:12;;;;;;;2.45;0.95;;;19.30;99.90;;;;;;4841514;29;20041;-80
2022/07/07 03:00:38;;;;;;;3.28;0.88;;;19.30;99.90;;;;;;4841417;29;20046;-80
2022/07/07 03:03:08;;;;;;;1.63;0.90;;;19.30;99.90;;;;;;4841361;29;20045;-80
2022/07/07 03:05:34;;;;;;;4.53;1.23;;;19.30;99.90;;;;;;4841661;29;20030;-80
2022/07/07 03:08:00;;;;;;;1.77;1.00;;;19.30;99.90;;;;;;4841617;29;20126;-80
2022/07/07 03:10:26;;;;;;;4.70;1.15;;;19.30;99.90;;;;;;4841448;29;20026;-80
2022/07/07 03:12:52;;;;;;;4.55;1.05;;;19.30;99.90;;;;;;4841320;29;20050;-80
2022/07/07 03:15:18;;;;;;;4.13;1.35;;;19.20;99.90;;;;;;4841178;29;20441;-80
2022/07/07 03:17:45;;;;;;;2.38;1.00;;;19.20;99.90;;;;;;4841223;29;20030;-80
2022/07/07 03:20:13;;;;;;;4.10;1.10;;;19.20;99.90;;;;;;4828423;29;20109;-80
2022/07/07 03:22:39;;;;;;;2.08;0.95;;;19.10;99.90;;;;;;4841281;29;20030;-80
2022/07/07 03:25:06;;;;;;;4.72;1.10;;;19.00;99.90;;;;;;4841386;29;20029;-80
2022/07/07 03:27:32;;;;;;;3.13;0.90;;;19.00;99.90;;;;;;4840108;29;20125;-80
2022/07/07 03:29:58;;;;;;;2.72;1.40;;;19.00;99.90;;;;;;4841033;29;20030;-80
2022/07/07 03:32:23;;;;;;;3.65;1.02;;;19.00;99.90;;;;;;4840766;29;20550;-80
2022/07/07 03:34:49;;;;;;;4.72;1.13;;;18.90;99.90;;;;;;4840956;29;20093;-80
2022/07/07 03:37:15;;;;;;;4.85;1.35;;;18.90;99.90;;;;;;4840883;29;20026;-80
2022/07/07 03:39:41;;;;;;;5.13;1.23;;;18.90;99.90;;;;;;4828068;29;20041;-80
2022/07/07 03:42:07;;;;;;;4.03;1.10;;;18.90;99.90;;;;;;4840911;29;20388;-80
2022/07/07 03:44:32;;;;;;;1.98;1.13;;;18.90;99.90;;;;;;4828519;29;20248;-80
2022/07/07 03:46:58;;;;;;;5.53;1.50;;;18.90;99.90;;;;;;4840877;29;20017;-80
2022/07/07 03:49:23;;;;;;;4.65;1.35;;;18.90;99.90;;;;;;4839369;29;20030;-80
2022/07/07 03:51:49;;;;;;;1.73;0.95;;;18.90;99.90;;;;;;4840640;29;20105;-80
2022/07/07 03:54:15;;;;;;;4.10;1.10;;;18.90;99.90;;;;;;4840668;29;20022;-80
2022/07/07 03:56:41;;;;;;;2.45;1.60;;;18.80;99.90;;;;;;4827770;29;20030;-80
2022/07/07 03:59:06;;;;;;;2.60;1.30;;;18.80;99.90;;;;;;4840687;29;20499;-80
2022/07/07 04:01:32;;;;;;;2.85;1.42;;;18.80;99.90;;;;;;4840326;29;20044;-80
2022/07/07 04:03:58;;;;;;;2.58;1.10;;;18.70;99.90;;;;;;4840476;29;20444;-80
2022/07/07 04:06:24;;;;;;;2.88;1.08;;;18.70;99.90;;;;;;4840346;29;20187;-80
2022/07/07 04:08:49;;;;;;;3.75;1.40;;;18.70;99.90;;;;;;4840274;29;20018;-80
2022/07/07 04:11:16;;;;;;;2.63;1.30;;;18.70;99.90;;;;;;4840325;29;20041;-80
2022/07/07 04:13:42;;;;;;;5.65;1.30;;;18.60;99.90;;;;;;4840109;29;20039;-80
2022/07/07 04:16:08;;;;;;;2.75;1.13;;;18.60;99.90;;;;;;4840714;29;20026;-80
2022/07/07 04:18:34;;;;;;;4.63;1.73;;;18.60;99.90;;;;;;4840093;29;20022;-80
2022/07/07 04:20:59;;;;;;;2.08;1.10;;;18.60;99.90;;;;;;4840374;29;20061;-80
2022/07/07 04:23:25;;;;;;;2.95;1.20;;;18.50;99.90;;;;;;4840244;29;20484;-80
2022/07/07 04:25:51;;;;;;;4.13;1.33;;;18.60;99.90;;;;;;4840020;29;20030;-80
2022/07/07 04:28:17;;;;;;;2.03;1.17;;;18.60;99.90;;;;;;4840055;29;20452;-80
2022/07/07 04:30:43;;;;;;;4.00;1.38;;;18.60;99.90;;;;;;4839882;29;20457;-80
2022/07/07 04:33:08;;;;;;;6.22;1.58;;;18.60;99.90;;;;;;4839920;29;20125;-80
2022/07/07 04:35:34;;;;;;;2.55;1.30;;;18.50;99.90;;;;;;4840027;29;20550;-80
2022/07/07 04:37:59;;;;;;;5.97;1.58;;;18.50;99.90;;;;;;4835539;29;20038;-80
2022/07/07 04:40:26;;;;;;;3.38;1.40;;;18.50;99.90;;;;;;4831232;29;20022;-80
2022/07/07 04:42:52;;;;;;;8.75;1.50;;;18.40;99.90;;;;;;4839735;29;20030;-80
2022/07/07 04:45:17;;;;;;;2.58;1.42;;;18.40;99.90;;;;;;4839743;29;20029;-80
2022/07/07 04:47:43;;;;;;;4.80;1.30;;;18.40;99.90;;;;;;4839476;29;20038;-80
2022/07/07 04:50:10;;;;;;;2.55;1.52;;;18.40;99.90;;;;;;4839727;29;20037;-80
2022/07/07 04:52:37;;;;;;;2.47;1.60;;;18.40;99.90;;;;;;4839845;29;20026;-80
2022/07/07 04:55:03;;;;;;;2.65;1.58;;;18.40;99.90;;;;;;4839677;29;20106;-80
2022/07/07 04:57:29;;;;;;;3.15;1.85;;;18.40;99.90;;;;;;4839565;29;20026;-80
2022/07/07 04:59:55;;;;;;;3.53;1.50;;;18.40;99.90;;;;;;4839553;29;20037;-80
2022/07/07 05:02:21;;;;;;;2.78;1.60;;;18.40;99.90;;;;;;4839233;29;20129;-80
2022/07/07 05:04:46;;;;;;;4.97;1.80;;;18.40;99.90;;;;;;4839734;29;20049;-80
2022/07/07 05:07:12;;;;;;;4.28;1.90;;;18.50;99.90;;;;;;4839506;29;20030;-80
2022/07/07 05:09:37;;;;;;;4.20;1.75;;;18.40;99.90;;;;;;4839470;29;20295;-80
2022/07/07 05:12:04;;;;;;;3.30;1.50;;;18.50;99.90;;;;;;4839572;29;20030;-80
2022/07/07 05:14:29;;;;;;;3.88;1.75;;;18.50;99.90;;;;;;4839410;29;20036;-80
2022/07/07 05:16:59;;;;;;;3.60;1.83;;;18.50;99.90;;;;;;4839112;29;20116;-80
2022/07/07 05:19:25;;;;;;;4.88;2.05;;;18.50;99.90;;;;;;4839210;29;20031;-80
2022/07/07 05:21:51;;;;;;;6.15;1.95;;;18.40;99.90;;;;;;4839035;29;20038;-79
2022/07/07 05:24:17;;;;;;;5.72;1.90;;;18.50;99.90;;;;;;4835037;29;20448;-79
2022/07/07 05:26:43;;;;;;;2.60;1.80;;;18.50;99.90;;;;;;4830501;29;20034;-79
2022/07/07 05:29:08;;;;;;;3.05;2.15;;;18.50;99.90;;;;;;4820796;29;20157;-80
2022/07/07 05:31:34;;;;;;;4.90;2.00;;;18.50;99.90;;;;;;4822091;29;20480;-80
2022/07/07 05:33:59;;;;;;;3.35;2.00;;;18.50;99.90;;;;;;4821529;29;20033;-80
2022/07/07 05:36:25;;;;;;;2.92;2.00;;;18.60;99.90;;;;;;4821547;29;20066;-80
2022/07/07 05:38:51;;;;;;;5.53;2.47;;;18.60;99.90;;;;;;4820341;29;20026;-79
2022/07/07 05:41:17;;;;;;;5.30;2.13;;;18.70;99.90;;;;;;4826772;29;20038;-79
2022/07/07 05:43:44;;;;;;;5.13;2.15;;;18.70;99.90;;;;;;4839892;29;20026;-80
2022/07/07 05:46:10;;;;;;;6.15;2.20;;;18.70;99.90;;;;;;4841353;29;20493;-79
2022/07/07 05:48:36;;;;;;;4.25;2.17;;;18.70;99.90;;;;;;4839621;29;20076;-80
2022/07/07 05:51:02;;;;;;;5.60;2.45;;;18.80;99.90;;;;;;4842960;29;20034;-79
2022/07/07 05:53:27;;;;;;;5.65;1.80;;;18.80;99.90;;;;;;4840460;29;20391;-80
2022/07/07 05:55:53;;;;;;;7.45;2.00;;;18.80;99.90;;;;;;4832039;29;20090;-79
2022/07/07 05:58:19;;;;;;;4.22;1.90;;;18.80;99.90;;;;;;4842592;29;20121;-79
2022/07/07 06:00:45;;;;;;;2.60;2.00;;;18.90;99.90;;;;;;4842466;29;20064;-79
2022/07/07 06:03:10;;;;;;;4.75;1.90;;;19.00;99.90;;;;;;4842220;29;20049;-79
2022/07/07 06:05:36;;;;;;;4.78;2.15;;;19.00;99.90;;;;;;4841285;29;20030;-81
2022/07/07 06:08:02;;;;;;;3.15;2.08;;;19.00;99.90;;;;;;4841425;29;20147;-79
2022/07/07 06:10:28;;;;;;;5.63;1.95;;;19.00;99.90;;;;;;4841327;29;20579;-79
2022/07/07 06:12:54;;;;;;;3.13;2.00;;;19.00;99.90;;;;;;4841238;29;20140;-79
2022/07/07 06:15:23;;;;;;;5.82;2.15;;;19.10;99.90;;;;;;4841101;29;20029;-79
2022/07/07 06:17:49;;;;;;;4.95;2.25;;;19.00;99.90;;;;;;4840999;29;20022;-79
2022/07/07 06:20:14;;;;;;;4.50;2.15;;;19.10;99.90;;;;;;4841146;29;20026;-79
2022/07/07 06:22:40;;;;;;;5.50;2.08;;;19.10;99.90;;;;;;4841860;29;20105;-79
2022/07/07 06:25:09;;;;;;;3.92;1.95;;;19.20;99.90;;;;;;4841323;29;20172;-79
2022/07/07 06:27:36;;;;;;;3.85;2.13;;;19.20;99.90;;;;;;4841201;29;20268;-79
2022/07/07 06:30:05;;;;;;;4.40;2.15;;;19.10;99.90;;;;;;4841324;29;20018;-79
2022/07/07 06:32:31;;;;;;;4.72;2.00;;;19.20;99.90;;;;;;4840987;29;20439;-79
2022/07/07 06:34:57;;;;;;;6.43;2.20;;;19.30;99.90;;;;;;4840964;29;20025;-79
2022/07/07 06:37:23;;;;;;;4.75;2.22;;;19.40;99.90;;;;;;4841029;29;20509;-79
2022/07/07 06:39:49;;;;;;;4.22;2.25;;;19.50;99.90;;;;;;4827926;29;20030;-79
2022/07/07 06:42:15;;;;;;;4.85;2.30;;;19.40;99.90;;;;;;4840914;29;20124;-79
2022/07/07 06:44:41;;;;;;;3.65;2.15;;;19.50;99.90;;;;;;4840613;29;20022;-79
2022/07/07 06:47:07;;;;;;;4.07;1.92;;;19.60;99.90;;;;;;4841013;29;20034;-79
2022/07/07 06:49:33;;;;;;;6.97;2.55;;;19.60;99.90;;;;;;4840796;29;20076;-79
2022/07/07 06:51:58;;;;;;;4.40;2.10;;;19.70;99.90;;;;;;4840860;29;20037;-79
2022/07/07 06:54:24;;;;;;;5.32;2.25;;;19.70;99.90;;;;;;4841015;29;20032;-79
2022/07/07 06:56:50;;;;;;;5.53;1.80;;;19.80;99.90;;;;;;4827661;29;20108;-79
2022/07/07 06:59:16;;;;;;;6.22;1.92;;;19.80;99.90;;;;;;4840689;29;20076;-79
2022/07/07 07:01:42;;;;;;;5.93;2.05;;;19.80;99.90;;;;;;4839878;29;20038;-79
2022/07/07 07:04:09;;;;;;;4.57;1.90;;;19.90;99.90;;;;;;4801564;29;1186047;-79
2022/07/07 07:06:35;;;;;;;5.10;1.90;;;20.00;99.90;;;;;;4841524;29;20038;-79
2022/07/07 07:09:01;;;;;;;5.53;2.40;;;20.00;99.90;;;;;;4841607;29;20529;-79
2022/07/07 07:11:27;;;;;;;11.30;2.03;;;20.10;99.90;;;;;;4841714;29;20188;-79
2022/07/07 07:13:53;;;;;;;3.22;1.80;;;20.10;99.90;;;;;;4841864;29;20158;-79
2022/07/07 07:16:19;;;;;;;12.13;2.40;;;20.10;99.90;;;;;;4841345;29;20475;-79
2022/07/07 07:18:45;;;;;;;5.97;1.92;;;20.10;99.90;;;;;;4841168;29;20040;-79
2022/07/07 07:21:11;;;;;;;4.57;1.60;;;20.20;99.90;;;;;;4841287;29;20089;-79
2022/07/07 07:23:38;;;;;;;7.63;2.10;;;20.40;99.90;;;;;;4841245;29;20029;-80
2022/07/07 07:26:08;;;;;;;7.40;2.10;;;20.50;99.90;;;;;;4841393;29;20042;-80
2022/07/07 07:28:34;;;;;;;6.60;2.03;;;20.60;99.90;;;;;;4841136;29;20029;-79
2022/07/07 07:31:01;;;;;;;4.57;1.90;;;20.60;99.90;;;;;;4841269;29;20258;-79
2022/07/07 07:33:27;;;;;;;4.55;2.13;;;20.60;99.90;;;;;;4841101;29;20056;-79
2022/07/07 07:35:53;;;;;;;5.13;2.03;;;20.80;99.90;;;;;;4841389;29;20416;-79
2022/07/07 07:38:19;;;;;;;4.57;2.13;;;20.70;99.90;;;;;;4834572;29;20030;-79
2022/07/07 07:40:45;;;;;;;4.68;1.92;;;20.80;99.90;;;;;;4834463;29;20399;-79
2022/07/07 07:43:11;;;;;;;5.07;1.90;;;20.90;99.90;;;;;;4840928;29;20425;-79
2022/07/07 07:45:37;;;;;;;4.35;1.80;;;21.00;99.90;;;;;;4840915;29;20081;-79
2022/07/07 07:48:04;;;;;;;3.85;1.73;;;21.10;99.90;;;;;;4841016;29;20029;-79
2022/07/07 07:50:30;;;;;;;7.05;2.10;;;21.20;99.90;;;;;;4840944;29;20487;-79
2022/07/07 07:52:57;;;;;;;4.65;1.55;;;21.30;99.90;;;;;;4840794;29;20030;-79
2022/07/07 07:55:23;;;;;;;4.45;1.73;;;21.30;99.90;;;;;;4840833;29;20113;-79
2022/07/07 07:57:50;;;;;;;3.58;1.50;;;21.40;99.90;;;;;;4840547;29;20129;-79
2022/07/07 08:00:18;;;;;;;2.38;1.50;;;21.40;99.90;;;;;;4840512;29;20053;-80
2022/07/07 08:02:45;;;;;;;4.88;1.42;;;21.50;99.90;;;;;;4840427;29;20037;-79
2022/07/07 08:05:11;;;;;;;3.85;1.60;;;21.50;99.90;;;;;;4840571;29;20054;-79
2022/07/07 08:07:37;;;;;;;3.70;1.50;;;21.60;99.90;;;;;;4839328;29;20070;-79
2022/07/07 08:10:04;;;;;;;7.80;1.60;;;21.80;99.90;;;;;;4840466;29;20022;-79
2022/07/07 08:12:29;;;;;;;3.53;1.27;;;21.80;99.90;;;;;;4839956;29;20498;-79
2022/07/07 08:14:55;;;;;;;1.95;1.50;;;21.80;99.90;;;;;;4840390;29;20034;-79
2022/07/07 08:17:21;;;;;;;5.13;1.30;;;21.80;99.90;;;;;;4840352;29;20459;-79
2022/07/07 08:19:47;;;;;;;2.15;1.30;;;21.90;99.90;;;;;;4840389;29;20236;-79
2022/07/07 08:22:13;;;;;;;3.35;1.42;;;22.00;99.90;;;;;;4839942;29;20034;-79
2022/07/07 08:24:38;;;;;;;3.20;1.65;;;22.00;99.90;;;;;;4840255;29;20022;-79
2022/07/07 08:27:05;;;;;;;3.28;1.50;;;22.00;99.90;;;;;;4840828;29;20116;-79
2022/07/07 08:29:30;;;;;;;2.60;1.20;;;22.20;99.90;;;;;;4840178;29;20030;-79
2022/07/07 08:31:56;;;;;;;3.90;1.30;;;22.30;99.90;;;;;;4840001;29;20541;-79
2022/07/07 08:34:23;;;;;;;4.28;1.50;;;22.40;99.90;;;;;;4840675;29;20034;-79
2022/07/07 08:36:49;;;;;;;3.58;1.42;;;22.40;99.90;;;;;;4840086;29;20057;-79
2022/07/07 08:39:16;;;;;;;3.42;1.55;;;22.40;99.90;;;;;;4827144;29;20031;-80
2022/07/07 08:41:42;;;;;;;4.18;1.50;;;22.40;99.90;;;;;;4839674;29;20034;-80
2022/07/07 08:44:10;;;;;;;5.28;1.73;;;22.50;99.90;;;;;;4839958;29;20022;-80
2022/07/07 08:46:35;;;;;;;4.43;1.35;;;22.50;99.90;;;;;;4839975;29;20022;-80
2022/07/07 08:49:01;;;;;;;3.55;1.30;;;22.60;99.90;;;;;;4840110;29;20086;-80
2022/07/07 08:51:27;;;;;;;3.35;1.33;;;22.60;99.90;;;;;;4839839;29;20018;-80
2022/07/07 08:53:53;;;;;;;5.47;1.30;;;22.70;99.90;;;;;;4839915;29;20026;-79
2022/07/07 08:56:19;;;;;;;3.70;1.40;;;22.70;99.90;;;;;;4839665;29;20051;-80
2022/07/07 08:58:46;;;;;;;3.33;1.40;;;22.90;99.90;;;;;;4839654;29;20484;-80
2022/07/07 09:01:12;;;;;;;3.78;1.55;;;22.90;99.90;;;;;;4839315;29;20086;-79
2022/07/07 09:03:38;;;;;;;5.82;1.20;;;22.90;99.90;;;;;;4839285;29;20419;-79
2022/07/07 09:06:04;;;;;;;4.82;1.30;;;23.00;99.90;;;;;;4839634;29;20580;-79
2022/07/07 09:08:31;;;;;;;6.60;1.23;;;22.90;99.90;;;;;;4839448;29;20074;-80
2022/07/07 09:10:57;;;;;;;2.45;1.00;;;22.90;99.90;;;;;;4839632;29;20024;-80
2022/07/07 09:13:32;;;;;;;5.03;1.35;;;23.00;99.90;;;;;;4839464;29;20030;-79
2022/07/07 09:16:19;;;;;;;2.55;1.10;;;23.20;99.90;;;;;;4838252;29;20078;-80
2022/07/07 09:18:46;;;;;;;5.05;1.17;;;23.40;99.90;;;;;;4839067;29;20120;-80
2022/07/07 09:21:27;;;;;;;4.30;1.25;;;23.60;99.90;;;;;;4839309;29;20433;-80
2022/07/07 09:23:55;;;;;;;3.13;1.20;;;23.50;99.90;;;;;;4839173;29;20507;-80
2022/07/07 09:26:40;;;;;;;3.78;1.20;;;23.50;99.90;;;;;;4839199;29;20078;-80
2022/07/07 09:29:08;;;;;;;7.20;1.50;;;23.40;99.90;;;;;;4839324;29;20045;-80
2022/07/07 09:31:58;;;;;;;1.95;0.90;;;23.50;99.90;;;;;;4839107;29;20376;-80
2022/07/07 09:34:29;;;;;;;4.80;1.40;;;23.50;99.90;;;;;;4833387;29;20494;-80
2022/07/07 09:39:43;;;;;;;3.70;1.20;;;23.50;99.50;;;;;;4826262;29;20110;-80
2022/07/07 09:42:26;;;;;;;2.53;0.77;;;23.60;99.00;;;;;;4838948;29;20078;-79
2022/07/07 09:44:52;;;;;;;3.83;1.08;;;23.70;98.30;;;;;;4838832;29;20022;-80
2022/07/07 09:47:19;;;;;;;3.67;1.00;;;23.70;98.40;;;;;;4828935;29;20038;-80
2022/07/07 09:50:01;;;;;;;6.57;1.05;;;23.80;98.20;;;;;;4836347;29;20109;-80
2022/07/07 09:52:28;;;;;;;2.63;1.10;;;23.90;98.30;;;;;;4839224;29;20147;-80
2022/07/07 09:54:53;;;;;;;3.90;1.00;;;23.90;98.20;;;;;;4838997;29;20026;-80
2022/07/07 09:57:19;;;;;;;3.83;1.40;;;24.00;98.50;;;;;;4839138;29;20034;-79
2022/07/07 09:59:46;;;;;;;6.53;1.13;;;24.00;98.20;;;;;;4838930;29;20026;-79
2022/07/07 10:02:25;;;;;;;5.40;1.15;;;24.00;97.70;;;;;;4838714;29;20095;-79
2022/07/07 10:04:54;;;;;;;1.58;0.70;;;24.00;98.00;;;;;;4838770;29;20618;-79
2022/07/07 10:07:22;;;;;;;2.78;0.80;;;24.00;97.70;;;;;;4838793;29;20109;-80
2022/07/07 10:09:53;;;;;;;4.43;1.02;;;23.90;97.60;;;;;;4838845;29;20491;-79
2022/07/07 10:12:25;;;;;;;6.55;1.38;;;24.00;97.80;;;;;;4839262;29;20041;-80
2022/07/07 10:14:56;;;;;;;2.00;0.85;;;24.20;98.00;;;;;;4839290;29;20045;-80
2022/07/07 10:17:24;;;;;;;2.90;1.10;;;24.30;97.60;;;;;;4837737;29;20030;-79
2022/07/07 10:19:50;;;;;;;3.60;1.10;;;24.20;96.90;;;;;;4838636;29;20365;-78
2022/07/07 10:22:16;;;;;;;3.22;1.00;;;24.40;97.60;;;;;;4838622;29;20045;-78
2022/07/07 10:24:43;;;;;;;3.42;1.05;;;24.40;97.80;;;;;;4838595;29;20029;-78
2022/07/07 10:27:14;;;;;;;6.15;1.83;;;24.40;97.50;;;;;;4838741;29;20452;-78
2022/07/07 10:29:53;;;;;;;8.77;2.08;;;24.50;97.60;;;;;;4838708;29;20026;-78
2022/07/07 10:32:29;;;;;;;3.05;1.10;;;24.50;97.10;;;;;;4839064;29;20019;-78
2022/07/07 10:34:56;;;;;;;4.38;1.33;;;24.60;97.30;;;;;;4839420;29;20101;-78
2022/07/07 10:37:23;;;;;;;4.15;1.60;;;24.70;97.10;;;;;;4842154;29;20402;-78
2022/07/07 10:39:51;;;;;;;4.53;1.05;;;24.80;96.60;;;;;;4829114;29;20026;-78
2022/07/07 10:42:17;;;;;;;3.47;2.50;;;24.60;96.90;;;;;;4841896;29;20041;-78
2022/07/07 10:44:48;;;;;;;4.90;1.40;;;24.40;97.60;;;;;;4841704;29;20416;-78
2022/07/07 10:47:17;;;;;;;8.05;1.38;;;24.50;97.70;;;;;;4842085;29;20034;-78
2022/07/07 10:49:51;;;;;;;5.25;1.38;;;24.60;97.00;;;;;;4841773;29;20114;-78
2022/07/07 10:52:25;;;;;;;2.72;0.90;;;24.70;96.70;;;;;;4841944;29;20483;-78
2022/07/07 10:54:59;;;;;;;3.88;1.35;;;24.90;96.50;;;;;;4842164;29;20105;-78
2022/07/07 10:57:38;;;;;;;5.88;1.20;;;24.90;95.90;;;;;;4834756;29;20072;-80
2022/07/07 11:00:14;;;;;;;9.85;1.48;;;24.90;96.50;;;;;;4833005;29;20554;-80
2022/07/07 11:02:48;;;;;;;3.03;1.08;;;24.80;96.20;;;;;;4840914;29;20044;-79
2022/07/07 11:05:13;;;;;;;3.50;1.13;;;24.90;96.10;;;;;;4841298;29;20050;-79
2022/07/07 11:07:41;;;;;;;3.92;1.27;;;25.00;96.00;;;;;;4841497;29;20132;-80
2022/07/07 11:10:10;;;;;;;2.35;1.02;;;24.80;95.50;;;;;;4841948;29;20050;-79
2022/07/07 11:12:39;;;;;;;5.70;2.00;;;24.80;96.90;;;;;;4841686;29;20091;-80
2022/07/07 11:15:14;;;;;;;3.55;1.40;;;25.00;96.30;;;;;;4841513;29;20425;-80
2022/07/07 11:17:48;;;;;;;3.70;1.10;;;25.10;96.00;;;;;;4841065;29;20034;-79
2022/07/07 11:20:19;;;;;;;6.45;1.33;;;25.00;96.20;;;;;;4841410;29;20551;-79
2022/07/07 11:22:47;;;;;;;6.63;1.25;;;25.10;95.90;;;;;;4841007;29;20090;-79
2022/07/07 11:25:15;;;;;;;5.18;2.70;;;25.10;95.60;;;;;;4841280;29;20502;-80
2022/07/07 11:27:41;;;;;;;3.80;1.73;;;24.90;95.40;;;;;;4841111;29;20048;-80
2022/07/07 11:30:08;;;;;;;4.10;1.10;;;24.90;95.80;;;;;;4841285;29;20105;-80
2022/07/07 11:32:41;;;;;;;4.75;1.60;;;24.90;96.00;;;;;;4841090;29;20423;-80
2022/07/07 11:35:09;;;;;;;81.38;9.05;;;25.00;95.60;;;;;;4841623;29;20460;-79
2022/07/07 11:37:37;;;;;;;4.57;1.20;;;25.10;95.30;;;;;;4840368;29;20022;-80
2022/07/07 11:40:24;;;;;;;4.88;1.10;;;25.20;95.20;;;;;;4829615;29;20026;-80
2022/07/07 11:42:49;;;;;;;2.83;1.20;;;25.30;94.80;;;;;;4840462;29;20057;-80
2022/07/07 11:45:20;;;;;;;3.28;1.10;;;25.40;94.90;;;;;;4841216;29;20026;-80
2022/07/07 11:47:46;;;;;;;7.60;1.08;;;25.50;94.90;;;;;;4839676;29;20279;-79
2022/07/07 11:50:12;;;;;;;3.60;0.90;;;25.50;95.30;;;;;;4840913;29;20391;-79
2022/07/07 11:52:38;;;;;;;2.10;0.90;;;25.60;94.80;;;;;;4840848;29;20034;-79
2022/07/07 11:55:05;;;;;;;2.58;0.90;;;25.80;94.60;;;;;;4832070;29;20065;-79
2022/07/07 11:57:37;;;;;;;4.50;1.08;;;26.00;94.20;;;;;;4824362;29;20418;-79
2022/07/07 12:00:09;;;;;;;25.00;3.05;;;25.90;94.40;;;;;;4827692;29;20022;-79
2022/07/07 12:02:35;;;;;;;5.05;0.95;;;25.50;94.40;;;;;;4840351;29;20037;-79
2022/07/07 12:05:00;;;;;;;3.83;0.98;;;25.40;95.00;;;;;;4840265;29;20464;-79
2022/07/07 12:07:26;;;;;;;4.20;1.35;;;25.60;95.20;;;;;;4840525;29;20030;-79
2022/07/07 12:09:51;;;;;;;7.25;0.88;;;25.60;94.70;;;;;;4840478;29;20030;-79
2022/07/07 12:12:18;;;;;;;7.93;1.33;;;25.50;94.50;;;;;;4840829;29;20074;-79
2022/07/07 12:14:44;;;;;;;3.75;0.80;;;25.60;94.10;;;;;;4839256;29;20105;-79
2022/07/07 12:17:10;;;;;;;4.85;0.95;;;25.70;94.40;;;;;;4840322;29;20030;-79
2022/07/07 12:19:46;;;;;;;6.90;1.23;;;26.00;94.50;;;;;;4840471;29;20040;-79
2022/07/07 12:22:12;;;;;;;8.57;1.40;;;26.10;94.60;;;;;;4840111;29;20517;-79
2022/07/07 12:24:38;;;;;;;4.22;1.25;;;26.00;94.00;;;;;;4840676;29;20026;-79
2022/07/07 12:27:14;;;;;;;5.15;1.02;;;26.00;94.60;;;;;;4838010;29;20030;-79
2022/07/07 12:30:06;;;;;;;3.65;1.13;;;25.90;94.70;;;;;;4831084;29;20034;-79
2022/07/07 12:32:32;;;;;;;8.20;1.40;;;26.00;95.00;;;;;;4840009;29;20248;-79
2022/07/07 12:34:58;;;;;;;4.88;1.15;;;26.00;95.90;;;;;;4840665;29;20654;-79
2022/07/07 12:37:41;;;;;;;17.25;2.05;;;26.10;95.50;;;;;;4840291;29;20432;-79
2022/07/07 12:40:10;;;;;;;21.20;2.60;;;26.20;96.20;;;;;;4810879;29;20083;-79
2022/07/07 12:42:36;;;;;;;8.23;1.40;;;26.20;96.50;;;;;;4834830;29;20120;-79
2022/07/07 12:45:13;;;;;;;6.03;1.30;;;26.40;96.30;;;;;;4839923;29;20026;-79
2022/07/07 12:47:46;;;;;;;6.28;1.38;;;26.10;96.20;;;;;;4839948;29;20483;-79